sensor_id;sensor_type;location;lat;lon;timestamp;P1;durP1;ratioP1;P2;durP2;ratioP2
36423;SDS011;22458;45.328;9.514;2023-06-04T00:00:43;11.55;;;9.82;;
36423;SDS011;22458;45.328;9.514;2023-06-04T00:03:09;11.65;;;10.20;;
36423;SDS011;22458;45.328;9.514;2023-06-04T00:05:35;9.45;;;8.48;;
36423;SDS011;22458;45.328;9.514;2023-06-04T00:08:00;12.88;;;10.05;;
36423;SDS011;22458;45.328;9.514;2023-06-04T00:10:26;12.32;;;10.45;;
36423;SDS011;22458;45.328;9.514;2023-06-04T00:12:52;11.00;;;9.57;;
36423;SDS011;22458;45.328;9.514;2023-06-04T00:15:17;11.02;;;9.15;;
36423;SDS011;22458;45.328;9.514;2023-06-04T00:17:43;11.20;;;8.85;;
36423;SDS011;22458;45.328;9.514;2023-06-04T00:20:09;10.48;;;9.25;;
36423;SDS011;22458;45.328;9.514;2023-06-04T00:22:35;20.10;;;10.27;;
36423;SDS011;22458;45.328;9.514;2023-06-04T00:25:01;11.43;;;10.20;;
36423;SDS011;22458;45.328;9.514;2023-06-04T00:27:28;12.35;;;10.15;;
36423;SDS011;22458;45.328;9.514;2023-06-04T00:29:54;13.25;;;10.45;;
36423;SDS011;22458;45.328;9.514;2023-06-04T00:32:20;10.75;;;9.65;;
36423;SDS011;22458;45.328;9.514;2023-06-04T00:34:53;10.93;;;9.50;;
36423;SDS011;22458;45.328;9.514;2023-06-04T00:37:21;12.90;;;10.40;;
36423;SDS011;22458;45.328;9.514;2023-06-04T00:39:47;11.25;;;10.05;;
36423;SDS011;22458;45.328;9.514;2023-06-04T00:42:13;11.63;;;9.63;;
36423;SDS011;22458;45.328;9.514;2023-06-04T00:44:39;12.40;;;11.02;;
36423;SDS011;22458;45.328;9.514;2023-06-04T00:47:14;10.90;;;9.77;;
36423;SDS011;22458;45.328;9.514;2023-06-04T00:49:41;11.27;;;10.10;;
36423;SDS011;22458;45.328;9.514;2023-06-04T00:52:10;10.93;;;9.82;;
36423;SDS011;22458;45.328;9.514;2023-06-04T00:54:40;12.77;;;9.52;;
36423;SDS011;22458;45.328;9.514;2023-06-04T00:57:06;12.65;;;9.73;;
36423;SDS011;22458;45.328;9.514;2023-06-04T00:59:34;14.27;;;10.95;;
36423;SDS011;22458;45.328;9.514;2023-06-04T01:02:11;15.65;;;10.00;;
36423;SDS011;22458;45.328;9.514;2023-06-04T01:04:58;11.40;;;9.85;;
36423;SDS011;22458;45.328;9.514;2023-06-04T01:07:36;11.63;;;10.43;;
36423;SDS011;22458;45.328;9.514;2023-06-04T01:10:05;11.02;;;9.93;;
36423;SDS011;22458;45.328;9.514;2023-06-04T01:12:31;11.55;;;10.15;;
36423;SDS011;22458;45.328;9.514;2023-06-04T01:14:57;11.95;;;10.45;;
36423;SDS011;22458;45.328;9.514;2023-06-04T01:19:58;12.32;;;10.02;;
36423;SDS011;22458;45.328;9.514;2023-06-04T01:27:54;12.27;;;10.88;;
36423;SDS011;22458;45.328;9.514;2023-06-04T01:30:29;12.68;;;11.38;;
36423;SDS011;22458;45.328;9.514;2023-06-04T01:32:57;13.25;;;11.20;;
36423;SDS011;22458;45.328;9.514;2023-06-04T01:35:27;13.32;;;10.68;;
36423;SDS011;22458;45.328;9.514;2023-06-04T01:37:53;13.10;;;10.45;;
36423;SDS011;22458;45.328;9.514;2023-06-04T01:40:20;12.05;;;10.48;;
36423;SDS011;22458;45.328;9.514;2023-06-04T01:42:46;15.10;;;10.82;;
36423;SDS011;22458;45.328;9.514;2023-06-04T01:45:12;13.57;;;10.90;;
36423;SDS011;22458;45.328;9.514;2023-06-04T01:47:38;12.95;;;11.27;;
36423;SDS011;22458;45.328;9.514;2023-06-04T01:50:04;12.55;;;11.23;;
36423;SDS011;22458;45.328;9.514;2023-06-04T01:52:37;13.10;;;11.15;;
36423;SDS011;22458;45.328;9.514;2023-06-04T01:55:04;13.40;;;10.90;;
36423;SDS011;22458;45.328;9.514;2023-06-04T01:57:32;14.98;;;12.40;;
36423;SDS011;22458;45.328;9.514;2023-06-04T02:00:02;12.30;;;11.00;;
36423;SDS011;22458;45.328;9.514;2023-06-04T02:02:38;14.07;;;11.60;;
36423;SDS011;22458;45.328;9.514;2023-06-04T02:05:06;14.30;;;11.35;;
36423;SDS011;22458;45.328;9.514;2023-06-04T02:07:33;13.23;;;11.82;;
36423;SDS011;22458;45.328;9.514;2023-06-04T02:10:00;12.63;;;11.32;;
36423;SDS011;22458;45.328;9.514;2023-06-04T02:12:26;16.13;;;12.20;;
36423;SDS011;22458;45.328;9.514;2023-06-04T02:14:52;13.90;;;12.43;;
36423;SDS011;22458;45.328;9.514;2023-06-04T02:17:17;15.02;;;12.40;;
36423;SDS011;22458;45.328;9.514;2023-06-04T02:19:43;14.13;;;12.40;;
36423;SDS011;22458;45.328;9.514;2023-06-04T02:22:13;15.07;;;12.93;;
36423;SDS011;22458;45.328;9.514;2023-06-04T02:24:39;14.23;;;12.25;;
36423;SDS011;22458;45.328;9.514;2023-06-04T02:27:08;13.45;;;12.00;;
36423;SDS011;22458;45.328;9.514;2023-06-04T02:29:35;15.25;;;12.45;;
36423;SDS011;22458;45.328;9.514;2023-06-04T02:32:02;14.20;;;12.70;;
36423;SDS011;22458;45.328;9.514;2023-06-04T02:34:28;20.35;;;13.40;;
36423;SDS011;22458;45.328;9.514;2023-06-04T02:36:54;14.77;;;12.82;;
36423;SDS011;22458;45.328;9.514;2023-06-04T02:39:20;18.52;;;13.93;;
36423;SDS011;22458;45.328;9.514;2023-06-04T02:41:46;14.63;;;11.93;;
36423;SDS011;22458;45.328;9.514;2023-06-04T02:44:11;15.07;;;13.45;;
36423;SDS011;22458;45.328;9.514;2023-06-04T02:46:37;15.60;;;12.57;;
36423;SDS011;22458;45.328;9.514;2023-06-04T02:49:03;13.82;;;12.23;;
36423;SDS011;22458;45.328;9.514;2023-06-04T02:51:30;15.05;;;13.10;;
36423;SDS011;22458;45.328;9.514;2023-06-04T02:53:56;16.70;;;13.43;;
36423;SDS011;22458;45.328;9.514;2023-06-04T02:56:22;16.27;;;13.27;;
36423;SDS011;22458;45.328;9.514;2023-06-04T02:58:51;16.13;;;13.55;;
36423;SDS011;22458;45.328;9.514;2023-06-04T03:01:21;18.50;;;13.52;;
36423;SDS011;22458;45.328;9.514;2023-06-04T03:03:48;14.75;;;13.15;;
36423;SDS011;22458;45.328;9.514;2023-06-04T03:06:15;17.02;;;14.13;;
36423;SDS011;22458;45.328;9.514;2023-06-04T03:08:42;16.58;;;13.10;;
36423;SDS011;22458;45.328;9.514;2023-06-04T03:11:08;17.90;;;13.63;;
36423;SDS011;22458;45.328;9.514;2023-06-04T03:13:34;15.77;;;13.98;;
36423;SDS011;22458;45.328;9.514;2023-06-04T03:16:00;16.85;;;14.05;;
36423;SDS011;22458;45.328;9.514;2023-06-04T03:18:27;15.80;;;14.02;;
36423;SDS011;22458;45.328;9.514;2023-06-04T03:20:53;16.90;;;14.23;;
36423;SDS011;22458;45.328;9.514;2023-06-04T03:23:20;16.15;;;14.05;;
36423;SDS011;22458;45.328;9.514;2023-06-04T03:25:46;16.05;;;13.93;;
36423;SDS011;22458;45.328;9.514;2023-06-04T03:28:12;17.15;;;15.32;;
36423;SDS011;22458;45.328;9.514;2023-06-04T03:30:41;15.95;;;14.32;;
36423;SDS011;22458;45.328;9.514;2023-06-04T03:33:08;16.63;;;14.82;;
36423;SDS011;22458;45.328;9.514;2023-06-04T03:35:34;17.02;;;15.00;;
36423;SDS011;22458;45.328;9.514;2023-06-04T03:37:59;16.33;;;14.05;;
36423;SDS011;22458;45.328;9.514;2023-06-04T03:40:26;20.90;;;15.13;;
36423;SDS011;22458;45.328;9.514;2023-06-04T03:42:53;17.45;;;14.95;;
36423;SDS011;22458;45.328;9.514;2023-06-04T03:45:20;17.17;;;14.30;;
36423;SDS011;22458;45.328;9.514;2023-06-04T03:47:46;18.25;;;14.52;;
36423;SDS011;22458;45.328;9.514;2023-06-04T03:50:12;19.67;;;15.88;;
36423;SDS011;22458;45.328;9.514;2023-06-04T03:52:38;17.27;;;14.35;;
36423;SDS011;22458;45.328;9.514;2023-06-04T03:55:05;17.52;;;15.55;;
36423;SDS011;22458;45.328;9.514;2023-06-04T03:57:33;17.65;;;15.55;;
36423;SDS011;22458;45.328;9.514;2023-06-04T04:00:00;17.65;;;14.90;;
36423;SDS011;22458;45.328;9.514;2023-06-04T04:02:26;24.55;;;16.05;;
36423;SDS011;22458;45.328;9.514;2023-06-04T04:04:52;21.77;;;16.08;;
36423;SDS011;22458;45.328;9.514;2023-06-04T04:07:19;19.63;;;16.00;;
36423;SDS011;22458;45.328;9.514;2023-06-04T04:09:46;16.92;;;15.05;;
36423;SDS011;22458;45.328;9.514;2023-06-04T04:12:12;18.00;;;15.60;;
36423;SDS011;22458;45.328;9.514;2023-06-04T04:14:39;16.67;;;14.82;;
36423;SDS011;22458;45.328;9.514;2023-06-04T04:17:05;15.85;;;14.18;;
36423;SDS011;22458;45.328;9.514;2023-06-04T04:19:31;16.42;;;14.68;;
36423;SDS011;22458;45.328;9.514;2023-06-04T04:21:57;16.15;;;14.45;;
36423;SDS011;22458;45.328;9.514;2023-06-04T04:24:26;18.10;;;15.15;;
36423;SDS011;22458;45.328;9.514;2023-06-04T04:26:57;16.45;;;14.70;;
36423;SDS011;22458;45.328;9.514;2023-06-04T04:29:24;18.75;;;15.60;;
36423;SDS011;22458;45.328;9.514;2023-06-04T04:31:51;17.48;;;14.80;;
36423;SDS011;22458;45.328;9.514;2023-06-04T04:34:20;15.88;;;14.18;;
36423;SDS011;22458;45.328;9.514;2023-06-04T04:36:46;16.63;;;14.77;;
36423;SDS011;22458;45.328;9.514;2023-06-04T04:39:23;16.35;;;14.60;;
36423;SDS011;22458;45.328;9.514;2023-06-04T04:41:51;17.40;;;14.55;;
36423;SDS011;22458;45.328;9.514;2023-06-04T04:44:17;18.88;;;14.35;;
36423;SDS011;22458;45.328;9.514;2023-06-04T04:46:43;15.77;;;14.18;;
36423;SDS011;22458;45.328;9.514;2023-06-04T04:49:09;16.05;;;14.02;;
36423;SDS011;22458;45.328;9.514;2023-06-04T04:51:35;15.25;;;13.25;;
36423;SDS011;22458;45.328;9.514;2023-06-04T04:54:02;14.23;;;12.70;;
36423;SDS011;22458;45.328;9.514;2023-06-04T04:56:32;14.15;;;12.65;;
36423;SDS011;22458;45.328;9.514;2023-06-04T04:58:59;14.73;;;13.23;;
36423;SDS011;22458;45.328;9.514;2023-06-04T05:01:25;16.85;;;13.07;;
36423;SDS011;22458;45.328;9.514;2023-06-04T05:03:52;16.95;;;13.73;;
36423;SDS011;22458;45.328;9.514;2023-06-04T05:06:18;16.42;;;13.85;;
36423;SDS011;22458;45.328;9.514;2023-06-04T05:08:45;17.75;;;14.63;;
36423;SDS011;22458;45.328;9.514;2023-06-04T05:11:12;15.95;;;13.30;;
36423;SDS011;22458;45.328;9.514;2023-06-04T05:13:39;16.50;;;14.05;;
36423;SDS011;22458;45.328;9.514;2023-06-04T05:16:07;18.85;;;14.02;;
36423;SDS011;22458;45.328;9.514;2023-06-04T05:18:37;15.68;;;14.00;;
36423;SDS011;22458;45.328;9.514;2023-06-04T05:21:07;15.65;;;13.77;;
36423;SDS011;22458;45.328;9.514;2023-06-04T05:23:38;16.45;;;14.73;;
36423;SDS011;22458;45.328;9.514;2023-06-04T05:26:05;17.10;;;15.00;;
36423;SDS011;22458;45.328;9.514;2023-06-04T05:28:31;20.48;;;15.38;;
36423;SDS011;22458;45.328;9.514;2023-06-04T05:31:01;18.73;;;14.38;;
36423;SDS011;22458;45.328;9.514;2023-06-04T05:33:31;17.48;;;15.68;;
36423;SDS011;22458;45.328;9.514;2023-06-04T05:36:01;16.60;;;14.65;;
36423;SDS011;22458;45.328;9.514;2023-06-04T05:38:32;16.80;;;14.02;;
36423;SDS011;22458;45.328;9.514;2023-06-04T05:41:05;16.85;;;13.75;;
36423;SDS011;22458;45.328;9.514;2023-06-04T05:43:34;16.98;;;15.18;;
36423;SDS011;22458;45.328;9.514;2023-06-04T05:46:00;17.33;;;14.52;;
36423;SDS011;22458;45.328;9.514;2023-06-04T05:48:26;16.92;;;15.13;;
36423;SDS011;22458;45.328;9.514;2023-06-04T05:50:51;16.98;;;15.07;;
36423;SDS011;22458;45.328;9.514;2023-06-04T05:53:17;15.80;;;13.95;;
36423;SDS011;22458;45.328;9.514;2023-06-04T05:55:45;16.88;;;14.35;;
36423;SDS011;22458;45.328;9.514;2023-06-04T05:58:11;14.45;;;12.93;;
36423;SDS011;22458;45.328;9.514;2023-06-04T06:00:36;13.38;;;11.88;;
36423;SDS011;22458;45.328;9.514;2023-06-04T06:03:02;15.70;;;12.65;;
36423;SDS011;22458;45.328;9.514;2023-06-04T06:05:37;14.45;;;12.95;;
36423;SDS011;22458;45.328;9.514;2023-06-04T06:08:03;13.07;;;11.73;;
36423;SDS011;22458;45.328;9.514;2023-06-04T06:10:30;11.13;;;10.02;;
36423;SDS011;22458;45.328;9.514;2023-06-04T06:12:56;10.45;;;9.13;;
36423;SDS011;22458;45.328;9.514;2023-06-04T06:15:22;9.30;;;7.68;;
36423;SDS011;22458;45.328;9.514;2023-06-04T06:17:49;10.63;;;9.52;;
36423;SDS011;22458;45.328;9.514;2023-06-04T06:20:15;10.90;;;9.80;;
36423;SDS011;22458;45.328;9.514;2023-06-04T06:22:44;11.43;;;10.23;;
36423;SDS011;22458;45.328;9.514;2023-06-04T06:25:11;11.32;;;9.88;;
36423;SDS011;22458;45.328;9.514;2023-06-04T06:27:46;9.80;;;7.95;;
36423;SDS011;22458;45.328;9.514;2023-06-04T06:30:14;7.60;;;6.70;;
36423;SDS011;22458;45.328;9.514;2023-06-04T06:32:40;7.63;;;6.30;;
36423;SDS011;22458;45.328;9.514;2023-06-04T06:35:06;6.07;;;5.38;;
36423;SDS011;22458;45.328;9.514;2023-06-04T06:37:32;5.88;;;5.15;;
36423;SDS011;22458;45.328;9.514;2023-06-04T06:39:58;5.47;;;4.70;;
36423;SDS011;22458;45.328;9.514;2023-06-04T06:42:24;5.75;;;5.10;;
36423;SDS011;22458;45.328;9.514;2023-06-04T06:44:51;7.63;;;5.50;;
36423;SDS011;22458;45.328;9.514;2023-06-04T06:47:16;5.95;;;5.35;;
36423;SDS011;22458;45.328;9.514;2023-06-04T06:49:42;5.18;;;4.60;;
36423;SDS011;22458;45.328;9.514;2023-06-04T06:52:08;5.68;;;4.65;;
36423;SDS011;22458;45.328;9.514;2023-06-04T06:54:35;4.85;;;4.40;;
36423;SDS011;22458;45.328;9.514;2023-06-04T06:57:00;6.05;;;5.18;;
36423;SDS011;22458;45.328;9.514;2023-06-04T06:59:27;6.30;;;5.68;;
36423;SDS011;22458;45.328;9.514;2023-06-04T07:01:53;6.57;;;5.45;;
36423;SDS011;22458;45.328;9.514;2023-06-04T07:04:19;5.80;;;5.13;;
36423;SDS011;22458;45.328;9.514;2023-06-04T07:06:45;7.43;;;4.93;;
36423;SDS011;22458;45.328;9.514;2023-06-04T07:09:11;7.68;;;5.45;;
36423;SDS011;22458;45.328;9.514;2023-06-04T07:11:38;5.90;;;5.30;;
36423;SDS011;22458;45.328;9.514;2023-06-04T07:14:04;8.13;;;6.32;;
36423;SDS011;22458;45.328;9.514;2023-06-04T07:16:29;6.65;;;5.50;;
36423;SDS011;22458;45.328;9.514;2023-06-04T07:18:55;7.18;;;5.63;;
36423;SDS011;22458;45.328;9.514;2023-06-04T07:21:21;7.22;;;6.53;;
36423;SDS011;22458;45.328;9.514;2023-06-04T07:23:49;7.03;;;6.32;;
36423;SDS011;22458;45.328;9.514;2023-06-04T07:26:19;7.75;;;6.47;;
36423;SDS011;22458;45.328;9.514;2023-06-04T07:28:45;6.47;;;5.80;;
36423;SDS011;22458;45.328;9.514;2023-06-04T07:31:11;7.70;;;5.68;;
36423;SDS011;22458;45.328;9.514;2023-06-04T07:33:40;8.70;;;5.68;;
36423;SDS011;22458;45.328;9.514;2023-06-04T07:36:14;8.38;;;6.80;;
36423;SDS011;22458;45.328;9.514;2023-06-04T07:38:42;6.40;;;5.80;;
36423;SDS011;22458;45.328;9.514;2023-06-04T07:41:08;9.10;;;6.35;;
36423;SDS011;22458;45.328;9.514;2023-06-04T07:43:34;6.68;;;5.22;;
36423;SDS011;22458;45.328;9.514;2023-06-04T07:46:01;6.68;;;5.57;;
36423;SDS011;22458;45.328;9.514;2023-06-04T07:48:28;6.65;;;6.05;;
36423;SDS011;22458;45.328;9.514;2023-06-04T07:50:56;8.82;;;6.25;;
36423;SDS011;22458;45.328;9.514;2023-06-04T07:53:23;7.00;;;6.30;;
36423;SDS011;22458;45.328;9.514;2023-06-04T07:55:48;7.45;;;6.10;;
36423;SDS011;22458;45.328;9.514;2023-06-04T07:58:14;7.80;;;5.32;;
36423;SDS011;22458;45.328;9.514;2023-06-04T08:00:40;7.13;;;5.63;;
36423;SDS011;22458;45.328;9.514;2023-06-04T08:03:06;6.40;;;5.70;;
36423;SDS011;22458;45.328;9.514;2023-06-04T08:05:32;6.57;;;5.53;;
36423;SDS011;22458;45.328;9.514;2023-06-04T08:07:58;7.05;;;6.32;;
36423;SDS011;22458;45.328;9.514;2023-06-04T08:10:24;7.35;;;5.97;;
36423;SDS011;22458;45.328;9.514;2023-06-04T08:12:50;7.65;;;6.05;;
36423;SDS011;22458;45.328;9.514;2023-06-04T08:15:15;6.70;;;5.38;;
36423;SDS011;22458;45.328;9.514;2023-06-04T08:17:41;6.20;;;5.53;;
36423;SDS011;22458;45.328;9.514;2023-06-04T08:20:07;7.03;;;6.13;;
36423;SDS011;22458;45.328;9.514;2023-06-04T08:25:02;5.80;;;5.20;;
36423;SDS011;22458;45.328;9.514;2023-06-04T08:27:29;6.97;;;5.28;;
36423;SDS011;22458;45.328;9.514;2023-06-04T08:29:56;6.95;;;6.25;;
36423;SDS011;22458;45.328;9.514;2023-06-04T08:32:22;7.32;;;6.63;;
36423;SDS011;22458;45.328;9.514;2023-06-04T08:34:48;6.93;;;6.15;;
36423;SDS011;22458;45.328;9.514;2023-06-04T08:37:16;6.97;;;6.07;;
36423;SDS011;22458;45.328;9.514;2023-06-04T08:39:42;6.18;;;5.57;;
36423;SDS011;22458;45.328;9.514;2023-06-04T08:42:09;7.35;;;6.03;;
36423;SDS011;22458;45.328;9.514;2023-06-04T08:45:13;7.38;;;5.75;;
36423;SDS011;22458;45.328;9.514;2023-06-04T08:50:09;8.02;;;6.30;;
36423;SDS011;22458;45.328;9.514;2023-06-04T08:52:37;8.65;;;6.10;;
36423;SDS011;22458;45.328;9.514;2023-06-04T08:55:03;6.80;;;6.07;;
36423;SDS011;22458;45.328;9.514;2023-06-04T08:57:30;6.93;;;6.07;;
36423;SDS011;22458;45.328;9.514;2023-06-04T08:59:56;7.72;;;6.35;;
36423;SDS011;22458;45.328;9.514;2023-06-04T09:02:22;7.20;;;6.50;;
36423;SDS011;22458;45.328;9.514;2023-06-04T09:04:48;8.20;;;7.07;;
36423;SDS011;22458;45.328;9.514;2023-06-04T09:07:15;8.52;;;7.63;;
36423;SDS011;22458;45.328;9.514;2023-06-04T09:09:42;8.00;;;6.93;;
36423;SDS011;22458;45.328;9.514;2023-06-04T09:12:12;8.73;;;7.63;;
36423;SDS011;22458;45.328;9.514;2023-06-04T09:14:47;8.30;;;7.43;;
36423;SDS011;22458;45.328;9.514;2023-06-04T09:17:15;8.45;;;7.25;;
36423;SDS011;22458;45.328;9.514;2023-06-04T09:19:47;7.93;;;7.13;;
36423;SDS011;22458;45.328;9.514;2023-06-04T09:22:12;8.52;;;7.68;;
36423;SDS011;22458;45.328;9.514;2023-06-04T09:24:45;12.82;;;8.38;;
36423;SDS011;22458;45.328;9.514;2023-06-04T09:27:13;8.95;;;8.05;;
36423;SDS011;22458;45.328;9.514;2023-06-04T09:29:56;10.63;;;7.75;;
36423;SDS011;22458;45.328;9.514;2023-06-04T09:32:29;9.23;;;7.68;;
36423;SDS011;22458;45.328;9.514;2023-06-04T09:34:56;9.63;;;8.35;;
36423;SDS011;22458;45.328;9.514;2023-06-04T09:37:51;8.20;;;7.25;;
36423;SDS011;22458;45.328;9.514;2023-06-04T09:40:19;8.03;;;7.23;;
36423;SDS011;22458;45.328;9.514;2023-06-04T09:42:45;8.75;;;7.85;;
36423;SDS011;22458;45.328;9.514;2023-06-04T09:45:28;10.50;;;8.73;;
36423;SDS011;22458;45.328;9.514;2023-06-04T09:47:58;9.90;;;8.90;;
36423;SDS011;22458;45.328;9.514;2023-06-04T09:50:25;9.23;;;8.32;;
36423;SDS011;22458;45.328;9.514;2023-06-04T09:52:59;9.35;;;8.23;;
36423;SDS011;22458;45.328;9.514;2023-06-04T09:55:25;11.02;;;8.48;;
36423;SDS011;22458;45.328;9.514;2023-06-04T09:57:51;9.38;;;8.43;;
36423;SDS011;22458;45.328;9.514;2023-06-04T10:00:21;9.63;;;8.57;;
36423;SDS011;22458;45.328;9.514;2023-06-04T10:02:49;9.63;;;8.68;;
36423;SDS011;22458;45.328;9.514;2023-06-04T10:05:20;9.55;;;8.25;;
36423;SDS011;22458;45.328;9.514;2023-06-04T10:07:47;8.48;;;7.68;;
36423;SDS011;22458;45.328;9.514;2023-06-04T10:12:45;9.45;;;8.55;;
36423;SDS011;22458;45.328;9.514;2023-06-04T10:15:13;10.27;;;9.25;;
36423;SDS011;22458;45.328;9.514;2023-06-04T10:17:42;10.32;;;9.10;;
36423;SDS011;22458;45.328;9.514;2023-06-04T10:20:08;10.02;;;9.02;;
36423;SDS011;22458;45.328;9.514;2023-06-04T10:22:35;11.13;;;9.40;;
36423;SDS011;22458;45.328;9.514;2023-06-04T10:25:02;11.20;;;9.00;;
36423;SDS011;22458;45.328;9.514;2023-06-04T10:27:29;10.32;;;9.30;;
36423;SDS011;22458;45.328;9.514;2023-06-04T10:29:57;10.60;;;9.60;;
36423;SDS011;22458;45.328;9.514;2023-06-04T10:32:26;9.93;;;8.93;;
36423;SDS011;22458;45.328;9.514;2023-06-04T10:34:55;9.23;;;8.30;;
36423;SDS011;22458;45.328;9.514;2023-06-04T10:37:25;9.52;;;8.63;;
36423;SDS011;22458;45.328;9.514;2023-06-04T10:39:52;9.18;;;8.27;;
36423;SDS011;22458;45.328;9.514;2023-06-04T10:42:19;9.77;;;8.77;;
36423;SDS011;22458;45.328;9.514;2023-06-04T10:44:49;9.52;;;8.57;;
36423;SDS011;22458;45.328;9.514;2023-06-04T10:47:20;9.25;;;8.35;;
36423;SDS011;22458;45.328;9.514;2023-06-04T10:49:53;9.73;;;8.73;;
36423;SDS011;22458;45.328;9.514;2023-06-04T10:52:20;9.93;;;8.93;;
36423;SDS011;22458;45.328;9.514;2023-06-04T10:54:46;7.90;;;7.10;;
36423;SDS011;22458;45.328;9.514;2023-06-04T10:57:18;8.18;;;7.38;;
36423;SDS011;22458;45.328;9.514;2023-06-04T10:59:54;8.68;;;7.78;;
36423;SDS011;22458;45.328;9.514;2023-06-04T11:02:20;8.05;;;7.25;;
36423;SDS011;22458;45.328;9.514;2023-06-04T11:04:46;7.82;;;7.00;;
36423;SDS011;22458;45.328;9.514;2023-06-04T11:07:12;8.45;;;7.55;;
36423;SDS011;22458;45.328;9.514;2023-06-04T11:09:47;8.23;;;7.30;;
36423;SDS011;22458;45.328;9.514;2023-06-04T11:12:14;8.52;;;7.43;;
36423;SDS011;22458;45.328;9.514;2023-06-04T11:14:39;8.65;;;7.85;;
36423;SDS011;22458;45.328;9.514;2023-06-04T11:17:12;10.02;;;8.02;;
36423;SDS011;22458;45.328;9.514;2023-06-04T11:19:38;10.02;;;7.80;;
36423;SDS011;22458;45.328;9.514;2023-06-04T11:22:05;8.93;;;8.00;;
36423;SDS011;22458;45.328;9.514;2023-06-04T11:24:32;15.35;;;8.10;;
36423;SDS011;22458;45.328;9.514;2023-06-04T11:26:58;9.80;;;8.45;;
36423;SDS011;22458;45.328;9.514;2023-06-04T11:29:25;10.93;;;8.50;;
36423;SDS011;22458;45.328;9.514;2023-06-04T11:31:50;8.43;;;7.53;;
36423;SDS011;22458;45.328;9.514;2023-06-04T11:34:23;9.38;;;8.25;;
36423;SDS011;22458;45.328;9.514;2023-06-04T11:36:49;8.68;;;7.63;;
36423;SDS011;22458;45.328;9.514;2023-06-04T11:39:17;8.40;;;7.47;;
36423;SDS011;22458;45.328;9.514;2023-06-04T11:41:44;10.57;;;9.32;;
36423;SDS011;22458;45.328;9.514;2023-06-04T11:44:11;9.48;;;8.57;;
36423;SDS011;22458;45.328;9.514;2023-06-04T11:46:44;11.48;;;8.70;;
36423;SDS011;22458;45.328;9.514;2023-06-04T11:49:14;8.73;;;7.80;;
36423;SDS011;22458;45.328;9.514;2023-06-04T11:51:47;9.63;;;8.55;;
36423;SDS011;22458;45.328;9.514;2023-06-04T11:54:13;9.88;;;8.88;;
36423;SDS011;22458;45.328;9.514;2023-06-04T11:56:41;9.75;;;8.77;;
36423;SDS011;22458;45.328;9.514;2023-06-04T11:59:14;8.80;;;7.85;;
36423;SDS011;22458;45.328;9.514;2023-06-04T12:01:41;8.77;;;7.10;;
36423;SDS011;22458;45.328;9.514;2023-06-04T12:04:14;7.32;;;6.60;;
36423;SDS011;22458;45.328;9.514;2023-06-04T12:09:20;7.57;;;6.85;;
36423;SDS011;22458;45.328;9.514;2023-06-04T12:11:47;9.15;;;8.10;;
36423;SDS011;22458;45.328;9.514;2023-06-04T12:14:17;9.63;;;8.73;;
36423;SDS011;22458;45.328;9.514;2023-06-04T12:19:25;10.50;;;8.18;;
36423;SDS011;22458;45.328;9.514;2023-06-04T12:22:04;8.75;;;7.68;;
36423;SDS011;22458;45.328;9.514;2023-06-04T12:24:45;10.85;;;8.95;;
36423;SDS011;22458;45.328;9.514;2023-06-04T12:27:18;8.73;;;7.93;;
36423;SDS011;22458;45.328;9.514;2023-06-04T12:29:54;9.02;;;8.18;;
36423;SDS011;22458;45.328;9.514;2023-06-04T12:32:27;9.40;;;8.43;;
36423;SDS011;22458;45.328;9.514;2023-06-04T12:34:53;9.18;;;8.23;;
36423;SDS011;22458;45.328;9.514;2023-06-04T12:37:19;10.32;;;8.80;;
36423;SDS011;22458;45.328;9.514;2023-06-04T12:39:46;9.73;;;8.15;;
36423;SDS011;22458;45.328;9.514;2023-06-04T12:42:12;9.88;;;8.93;;
36423;SDS011;22458;45.328;9.514;2023-06-04T12:44:39;10.25;;;8.43;;
36423;SDS011;22458;45.328;9.514;2023-06-04T12:47:06;8.93;;;7.97;;
36423;SDS011;22458;45.328;9.514;2023-06-04T12:49:32;9.75;;;8.52;;
36423;SDS011;22458;45.328;9.514;2023-06-04T12:51:58;11.05;;;9.23;;
36423;SDS011;22458;45.328;9.514;2023-06-04T12:54:24;9.32;;;8.25;;
36423;SDS011;22458;45.328;9.514;2023-06-04T12:56:52;15.00;;;12.73;;
36423;SDS011;22458;45.328;9.514;2023-06-04T12:59:18;10.23;;;9.23;;
36423;SDS011;22458;45.328;9.514;2023-06-04T13:01:44;8.98;;;8.02;;
36423;SDS011;22458;45.328;9.514;2023-06-04T13:04:09;9.70;;;8.18;;
36423;SDS011;22458;45.328;9.514;2023-06-04T13:06:35;9.85;;;8.85;;
36423;SDS011;22458;45.328;9.514;2023-06-04T13:09:02;9.48;;;8.45;;
36423;SDS011;22458;45.328;9.514;2023-06-04T13:11:34;7.95;;;7.15;;
36423;SDS011;22458;45.328;9.514;2023-06-04T13:14:04;10.52;;;8.45;;
36423;SDS011;22458;45.328;9.514;2023-06-04T13:16:29;9.82;;;8.85;;
36423;SDS011;22458;45.328;9.514;2023-06-04T13:18:55;9.88;;;8.50;;
36423;SDS011;22458;45.328;9.514;2023-06-04T13:21:21;12.55;;;9.00;;
36423;SDS011;22458;45.328;9.514;2023-06-04T13:23:47;9.35;;;8.45;;
36423;SDS011;22458;45.328;9.514;2023-06-04T13:26:14;9.40;;;8.10;;
36423;SDS011;22458;45.328;9.514;2023-06-04T13:31:09;10.00;;;8.98;;
36423;SDS011;22458;45.328;9.514;2023-06-04T13:33:35;8.77;;;7.97;;
36423;SDS011;22458;45.328;9.514;2023-06-04T13:36:04;9.07;;;8.07;;
36423;SDS011;22458;45.328;9.514;2023-06-04T13:38:31;8.65;;;7.85;;
36423;SDS011;22458;45.328;9.514;2023-06-04T13:40:57;10.55;;;9.00;;
36423;SDS011;22458;45.328;9.514;2023-06-04T13:43:23;9.60;;;8.40;;
36423;SDS011;22458;45.328;9.514;2023-06-04T13:45:49;8.32;;;7.35;;
36423;SDS011;22458;45.328;9.514;2023-06-04T13:48:14;10.00;;;8.80;;
36423;SDS011;22458;45.328;9.514;2023-06-04T13:50:40;6.85;;;6.25;;
36423;SDS011;22458;45.328;9.514;2023-06-04T13:53:10;6.97;;;6.18;;
36423;SDS011;22458;45.328;9.514;2023-06-04T13:55:38;12.95;;;9.93;;
36423;SDS011;22458;45.328;9.514;2023-06-04T13:58:04;8.15;;;7.35;;
36423;SDS011;22458;45.328;9.514;2023-06-04T14:00:30;8.68;;;7.78;;
36423;SDS011;22458;45.328;9.514;2023-06-04T14:02:56;8.88;;;7.88;;
36423;SDS011;22458;45.328;9.514;2023-06-04T14:05:25;9.23;;;8.32;;
36423;SDS011;22458;45.328;9.514;2023-06-04T14:07:53;8.98;;;7.13;;
36423;SDS011;22458;45.328;9.514;2023-06-04T14:10:19;7.35;;;6.65;;
36423;SDS011;22458;45.328;9.514;2023-06-04T14:12:44;7.60;;;6.65;;
36423;SDS011;22458;45.328;9.514;2023-06-04T14:15:11;8.30;;;7.05;;
36423;SDS011;22458;45.328;9.514;2023-06-04T14:20:05;9.40;;;7.63;;
36423;SDS011;22458;45.328;9.514;2023-06-04T14:22:36;8.68;;;7.45;;
36423;SDS011;22458;45.328;9.514;2023-06-04T14:25:02;7.38;;;6.55;;
36423;SDS011;22458;45.328;9.514;2023-06-04T14:27:29;7.35;;;6.65;;
36423;SDS011;22458;45.328;9.514;2023-06-04T14:29:56;7.95;;;6.60;;
36423;SDS011;22458;45.328;9.514;2023-06-04T14:32:22;7.07;;;6.38;;
36423;SDS011;22458;45.328;9.514;2023-06-04T14:34:48;7.10;;;6.28;;
36423;SDS011;22458;45.328;9.514;2023-06-04T14:37:14;6.45;;;5.85;;
36423;SDS011;22458;45.328;9.514;2023-06-04T14:39:40;7.75;;;6.88;;
36423;SDS011;22458;45.328;9.514;2023-06-04T14:42:06;7.68;;;6.28;;
36423;SDS011;22458;45.328;9.514;2023-06-04T14:44:32;7.78;;;6.53;;
36423;SDS011;22458;45.328;9.514;2023-06-04T14:46:58;9.68;;;8.13;;
36423;SDS011;22458;45.328;9.514;2023-06-04T14:49:24;8.45;;;7.05;;
36423;SDS011;22458;45.328;9.514;2023-06-04T14:51:49;9.05;;;8.15;;
36423;SDS011;22458;45.328;9.514;2023-06-04T14:54:15;9.25;;;8.25;;
36423;SDS011;22458;45.328;9.514;2023-06-04T14:56:41;9.95;;;8.50;;
36423;SDS011;22458;45.328;9.514;2023-06-04T14:59:07;8.77;;;6.75;;
36423;SDS011;22458;45.328;9.514;2023-06-04T15:01:40;8.57;;;7.65;;
36423;SDS011;22458;45.328;9.514;2023-06-04T15:04:07;8.35;;;7.45;;